createdAt,value
2023-02-22T00:00:53.174Z,1.20
2023-02-22T00:02:11.668Z,1.42
2023-02-22T00:03:26.213Z,0.82
2023-02-22T00:04:29.301Z,0.88
2023-02-22T00:05:32.372Z,1.10
2023-02-22T00:06:35.662Z,0.88
2023-02-22T00:07:39.025Z,0.90
2023-02-22T00:08:43.384Z,1.00
2023-02-22T00:09:46.527Z,0.95
2023-02-22T00:10:51.841Z,1.12
2023-02-22T00:11:55.153Z,0.80
2023-02-22T00:12:58.329Z,1.02
2023-02-22T00:14:02.807Z,1.15
2023-02-22T00:15:06.031Z,1.23
2023-02-22T00:16:09.212Z,1.23
2023-02-22T00:17:14.026Z,1.05
2023-02-22T00:18:19.764Z,1.20
2023-02-22T00:19:22.960Z,0.98
2023-02-22T00:20:26.253Z,0.90
2023-02-22T00:21:31.516Z,0.90
2023-02-22T00:22:34.830Z,1.30
2023-02-22T00:23:40.179Z,1.00
2023-02-22T00:24:43.181Z,1.00
2023-02-22T00:25:51.704Z,1.17
2023-02-22T00:26:57.333Z,1.08
2023-02-22T00:28:00.863Z,1.10
2023-02-22T00:29:05.028Z,1.05
2023-02-22T00:30:09.758Z,1.00
2023-02-22T00:31:15.789Z,1.10
2023-02-22T00:32:19.615Z,1.70
2023-02-22T00:33:23.907Z,1.08
2023-02-22T00:34:27.075Z,0.98
2023-02-22T00:35:31.427Z,1.30
2023-02-22T00:36:34.908Z,1.10
2023-02-22T00:37:42.323Z,1.17
2023-02-22T00:38:46.989Z,0.70
2023-02-22T00:39:51.218Z,1.20
2023-02-22T00:40:56.000Z,1.10
2023-02-22T00:42:01.963Z,0.68
2023-02-22T00:43:06.626Z,1.15
2023-02-22T00:44:09.651Z,1.12
2023-02-22T00:45:14.771Z,0.82
2023-02-22T00:46:18.033Z,0.82
2023-02-22T00:47:21.255Z,1.10
2023-02-22T00:48:26.404Z,1.02
2023-02-22T00:49:29.624Z,0.65
2023-02-22T00:50:34.124Z,1.05
2023-02-22T00:51:37.472Z,1.02
2023-02-22T00:52:40.769Z,0.95
2023-02-22T00:53:43.880Z,1.10
2023-02-22T00:54:47.036Z,1.05
2023-02-22T00:55:50.765Z,1.15
2023-02-22T00:56:54.709Z,1.33
2023-02-22T00:57:58.883Z,1.23
2023-02-22T00:59:02.345Z,1.27
2023-02-22T01:00:12.927Z,1.33
2023-02-22T01:02:20.016Z,0.98
2023-02-22T01:03:23.391Z,0.85
2023-02-22T01:04:26.798Z,1.05
2023-02-22T01:05:31.011Z,1.25
2023-02-22T01:06:34.545Z,1.02
2023-02-22T01:07:37.654Z,1.25
2023-02-22T01:08:45.286Z,1.20
2023-02-22T01:09:48.562Z,0.70
2023-02-22T01:10:52.896Z,0.82
2023-02-22T01:11:57.213Z,1.20
2023-02-22T01:13:01.705Z,1.87
2023-02-22T01:14:04.746Z,1.73
2023-02-22T01:15:12.340Z,1.23
2023-02-22T01:16:15.634Z,1.33
2023-02-22T01:17:18.741Z,1.70
2023-02-22T01:18:23.748Z,1.55
2023-02-22T01:19:27.428Z,1.85
2023-02-22T01:20:30.511Z,2.08
2023-02-22T01:21:33.565Z,1.23
2023-02-22T01:22:37.831Z,1.50
2023-02-22T01:23:40.942Z,1.77
2023-02-22T01:24:44.145Z,1.67
2023-02-22T01:25:47.481Z,2.97
2023-02-22T01:26:53.072Z,3.87
2023-02-22T01:27:57.665Z,2.22
2023-02-22T01:29:01.305Z,2.00
2023-02-22T01:30:08.849Z,1.80
2023-02-22T01:31:12.923Z,1.17
2023-02-22T01:32:16.253Z,1.77
2023-02-22T01:33:19.509Z,0.80
2023-02-22T01:34:24.024Z,1.52
2023-02-22T01:35:30.826Z,1.67
2023-02-22T01:36:33.741Z,1.95
2023-02-22T01:37:37.027Z,2.30
2023-02-22T01:38:42.706Z,2.05
2023-02-22T01:39:46.189Z,1.73
2023-02-22T01:40:51.750Z,1.10
2023-02-22T01:41:55.345Z,1.45
2023-02-22T01:43:02.092Z,1.23
2023-02-22T01:44:34.467Z,1.00
2023-02-22T01:46:08.683Z,1.77
2023-02-22T01:47:11.952Z,1.20
2023-02-22T01:48:44.888Z,1.00
2023-02-22T01:49:51.377Z,1.52
2023-02-22T01:50:59.766Z,0.80
2023-02-22T01:52:06.849Z,1.08
2023-02-22T01:53:14.693Z,0.90
2023-02-22T01:54:27.019Z,0.80
2023-02-22T01:55:31.304Z,0.98
2023-02-22T01:56:38.653Z,1.40
2023-02-22T01:57:41.738Z,1.33
2023-02-22T01:58:50.952Z,1.20
2023-02-22T01:59:58.419Z,0.80
2023-02-22T02:01:01.605Z,0.77
2023-02-22T02:02:05.521Z,0.95
2023-02-22T02:03:15.386Z,1.30
2023-02-22T02:04:25.842Z,0.98
2023-02-22T02:05:32.223Z,1.00
2023-02-22T02:06:37.880Z,0.90
2023-02-22T02:07:41.697Z,1.15
2023-02-22T02:09:00.085Z,0.90
2023-02-22T02:10:15.766Z,0.88
2023-02-22T02:11:25.857Z,0.80
2023-02-22T02:12:33.577Z,0.82
2023-02-22T02:13:37.121Z,1.12
2023-02-22T02:14:42.292Z,1.00
2023-02-22T02:15:46.192Z,1.20
2023-02-22T02:16:52.235Z,0.70
2023-02-22T02:17:57.454Z,1.30
2023-02-22T02:19:00.986Z,1.33
2023-02-22T02:20:20.943Z,1.30
2023-02-22T02:21:50.169Z,0.90
2023-02-22T02:23:24.736Z,0.85
2023-02-22T02:24:59.066Z,1.75
2023-02-22T02:26:43.691Z,0.90
2023-02-22T02:27:54.714Z,0.73
2023-02-22T02:29:07.403Z,1.15
2023-02-22T02:30:21.918Z,1.67
2023-02-22T02:32:02.785Z,0.95
2023-02-22T02:33:17.030Z,1.12
2023-02-22T02:34:24.641Z,1.12
2023-02-22T02:35:57.825Z,1.08
2023-02-22T02:37:29.145Z,1.00
2023-02-22T02:38:58.234Z,0.88
2023-02-22T02:40:12.824Z,0.70
2023-02-22T02:41:22.367Z,1.12
2023-02-22T02:42:34.102Z,0.62
2023-02-22T02:44:18.768Z,1.20
2023-02-22T02:45:33.950Z,1.02
2023-02-22T02:46:56.580Z,1.17
2023-02-22T02:48:02.754Z,1.08
2023-02-22T02:49:17.261Z,1.12
2023-02-22T02:50:35.673Z,0.90
2023-02-22T02:51:44.664Z,0.80
2023-02-22T02:52:49.660Z,0.90
2023-02-22T02:53:54.026Z,0.82
2023-02-22T02:54:58.472Z,1.00
2023-02-22T02:56:01.653Z,1.20
2023-02-22T02:57:05.215Z,0.90
2023-02-22T02:58:09.027Z,1.33
2023-02-22T02:59:28.944Z,0.85
2023-02-22T03:00:39.659Z,0.98
2023-02-22T03:03:11.692Z,1.02
2023-02-22T03:04:36.528Z,0.98
2023-02-22T03:06:02.164Z,1.20
2023-02-22T03:07:34.402Z,1.00
2023-02-22T03:09:05.125Z,0.90
2023-02-22T03:10:39.307Z,1.05
2023-02-22T03:12:08.501Z,1.10
2023-02-22T03:13:29.304Z,0.75
2023-02-22T03:14:42.531Z,0.95
2023-02-22T03:16:03.070Z,0.82
2023-02-22T03:17:16.387Z,0.90
2023-02-22T03:18:50.421Z,1.17
2023-02-22T03:20:05.299Z,1.12
2023-02-22T03:21:18.476Z,1.15
2023-02-22T03:22:28.520Z,0.75
2023-02-22T03:23:54.627Z,0.82
2023-02-22T03:25:07.427Z,0.95
2023-02-22T03:26:15.252Z,0.88
2023-02-22T03:27:35.010Z,1.20
2023-02-22T03:28:41.583Z,0.80
2023-02-22T03:29:46.215Z,1.23
2023-02-22T03:30:58.969Z,1.25
2023-02-22T03:32:05.396Z,1.20
2023-02-22T03:33:20.664Z,1.08
2023-02-22T03:34:28.636Z,0.90
2023-02-22T03:35:36.018Z,0.77
2023-02-22T03:36:49.107Z,1.10
2023-02-22T03:37:57.489Z,1.23
2023-02-22T03:39:04.562Z,1.00
2023-02-22T03:40:14.361Z,0.90
2023-02-22T03:41:24.352Z,1.00
2023-02-22T03:42:34.307Z,0.83
2023-02-22T03:43:45.306Z,1.05
2023-02-22T03:44:50.552Z,1.35
2023-02-22T03:45:54.780Z,1.30
2023-02-22T03:47:02.392Z,0.70
2023-02-22T03:48:21.153Z,1.20
2023-02-22T03:49:47.262Z,0.93
2023-02-22T03:50:51.419Z,1.10
2023-02-22T03:51:54.972Z,1.42
2023-02-22T03:53:01.128Z,0.93
2023-02-22T03:54:05.037Z,0.90
2023-02-22T03:55:11.417Z,1.48
2023-02-22T03:56:23.271Z,0.88
2023-02-22T03:57:30.329Z,1.17
2023-02-22T03:58:37.003Z,1.00
2023-02-22T03:59:41.075Z,1.12
2023-02-22T04:00:44.895Z,1.30
2023-02-22T04:01:48.024Z,0.88
2023-02-22T04:02:51.577Z,1.12
2023-02-22T04:03:54.649Z,1.17
2023-02-22T04:04:57.903Z,0.93
2023-02-22T04:06:00.960Z,1.15
2023-02-22T04:07:04.395Z,0.98
2023-02-22T04:08:08.045Z,1.37
2023-02-22T04:09:11.422Z,1.05
2023-02-22T04:10:17.266Z,1.10
2023-02-22T04:11:22.564Z,1.00
2023-02-22T04:12:25.707Z,1.20
2023-02-22T04:13:29.442Z,1.52
2023-02-22T04:14:32.533Z,1.35
2023-02-22T04:15:35.667Z,1.30
2023-02-22T04:16:38.772Z,1.15
2023-02-22T04:17:42.207Z,1.12
2023-02-22T04:18:46.794Z,1.37
2023-02-22T04:19:50.106Z,0.60
2023-02-22T04:20:53.475Z,1.62
2023-02-22T04:21:58.088Z,0.90
2023-02-22T04:23:01.759Z,1.02
2023-02-22T04:24:05.156Z,0.95
2023-02-22T04:25:09.131Z,1.20
2023-02-22T04:26:12.526Z,0.77
2023-02-22T04:27:16.191Z,1.40
2023-02-22T04:28:19.822Z,1.30
2023-02-22T04:29:23.189Z,1.45
2023-02-22T04:30:28.597Z,1.37
2023-02-22T04:31:34.248Z,1.12
2023-02-22T04:32:38.599Z,1.58
2023-02-22T04:33:41.567Z,1.30
2023-02-22T04:34:44.639Z,1.10
2023-02-22T04:35:47.635Z,0.80
2023-02-22T04:36:50.945Z,1.75
2023-02-22T04:37:54.038Z,1.20
2023-02-22T04:38:57.103Z,1.12
2023-02-22T04:40:00.806Z,1.05
2023-02-22T04:41:03.915Z,1.00
2023-02-22T04:42:07.352Z,1.20
2023-02-22T04:43:10.594Z,1.60
2023-02-22T04:44:14.462Z,1.30
2023-02-22T04:45:17.853Z,1.27
2023-02-22T04:46:20.981Z,1.30
2023-02-22T04:47:24.290Z,2.15
2023-02-22T04:48:28.206Z,1.25
2023-02-22T04:49:31.900Z,1.10
2023-02-22T04:50:35.324Z,1.00
2023-02-22T04:51:38.537Z,1.45
2023-02-22T04:52:41.763Z,1.20
2023-02-22T04:53:44.983Z,1.48
2023-02-22T04:54:48.134Z,1.08
2023-02-22T04:55:51.320Z,1.27
2023-02-22T04:56:54.848Z,1.10
2023-02-22T04:57:58.568Z,1.60
2023-02-22T04:59:03.366Z,1.15
2023-02-22T05:00:07.523Z,1.15
2023-02-22T05:01:16.936Z,1.15
2023-02-22T05:02:20.698Z,1.10
2023-02-22T05:03:23.799Z,1.25
2023-02-22T05:04:27.486Z,1.55
2023-02-22T05:05:30.733Z,1.58
2023-02-22T05:06:34.267Z,1.27
2023-02-22T05:07:38.003Z,1.60
2023-02-22T05:08:41.147Z,1.77
2023-02-22T05:09:44.651Z,1.20
2023-02-22T05:10:47.781Z,1.40
2023-02-22T05:11:50.937Z,1.37
2023-02-22T05:12:54.131Z,1.08
2023-02-22T05:13:57.052Z,1.37
2023-02-22T05:15:00.044Z,1.48
2023-02-22T05:16:04.230Z,1.30
2023-02-22T05:17:07.479Z,1.30
2023-02-22T05:18:10.615Z,1.70
2023-02-22T05:19:14.258Z,1.52
2023-02-22T05:20:30.398Z,1.00
2023-02-22T05:21:36.105Z,1.60
2023-02-22T05:22:39.242Z,1.10
2023-02-22T05:23:42.493Z,1.17
2023-02-22T05:24:45.695Z,1.30
2023-02-22T05:25:48.776Z,1.15
2023-02-22T05:26:53.558Z,1.52
2023-02-22T05:28:08.610Z,1.10
2023-02-22T05:29:12.902Z,1.23
2023-02-22T05:30:16.767Z,1.35
2023-02-22T05:31:24.862Z,1.30
2023-02-22T05:32:28.344Z,1.30
2023-02-22T05:33:31.649Z,1.40
2023-02-22T05:34:34.887Z,1.17
2023-02-22T05:35:38.333Z,1.20
2023-02-22T05:36:41.733Z,1.50
2023-02-22T05:37:45.261Z,0.98
2023-02-22T05:38:49.670Z,1.25
2023-02-22T05:39:53.024Z,1.10
2023-02-22T05:40:57.268Z,1.62
2023-02-22T05:42:00.460Z,1.23
2023-02-22T05:43:03.994Z,1.30
2023-02-22T05:44:07.239Z,1.02
2023-02-22T05:45:14.040Z,1.60
2023-02-22T05:46:17.202Z,1.20
2023-02-22T05:47:20.489Z,1.45
2023-02-22T05:48:24.991Z,1.50
2023-02-22T05:49:28.288Z,1.30
2023-02-22T05:50:33.388Z,1.45
2023-02-22T05:51:36.672Z,1.20
2023-02-22T05:52:39.932Z,1.42
2023-02-22T05:53:42.921Z,1.65
2023-02-22T05:54:46.286Z,1.90
2023-02-22T05:55:49.428Z,1.98
2023-02-22T05:56:52.658Z,1.15
2023-02-22T05:57:55.863Z,1.25
2023-02-22T05:58:59.955Z,1.12
2023-02-22T06:00:05.609Z,1.40
2023-02-22T06:01:09.418Z,1.17
2023-02-22T06:02:12.761Z,1.10
2023-02-22T06:03:16.423Z,1.10
2023-02-22T06:04:20.461Z,1.20
2023-02-22T06:05:23.762Z,1.20
2023-02-22T06:06:26.843Z,1.92
2023-02-22T06:07:30.080Z,1.23
2023-02-22T06:08:34.081Z,1.55
2023-02-22T06:09:37.392Z,1.90
2023-02-22T06:10:40.770Z,1.20
2023-02-22T06:11:44.048Z,1.45
2023-02-22T06:12:48.866Z,0.98
2023-02-22T06:13:53.531Z,1.30
2023-02-22T06:14:56.586Z,1.15
2023-02-22T06:16:00.118Z,1.50
2023-02-22T06:17:03.732Z,1.20
2023-02-22T06:18:07.024Z,1.27
2023-02-22T06:19:11.590Z,1.30
2023-02-22T06:20:17.704Z,1.30
2023-02-22T06:21:21.375Z,1.60
2023-02-22T06:22:24.352Z,1.45
2023-02-22T06:23:27.929Z,1.65
2023-02-22T06:24:31.006Z,1.25
2023-02-22T06:25:34.222Z,1.37
2023-02-22T06:26:37.144Z,1.02
2023-02-22T06:27:41.735Z,1.17
2023-02-22T06:28:47.317Z,1.20
2023-02-22T06:29:50.322Z,1.27
2023-02-22T06:30:53.419Z,1.33
2023-02-22T06:31:57.011Z,1.40
2023-02-22T06:33:00.110Z,1.45
2023-02-22T06:34:03.545Z,1.90
2023-02-22T06:35:07.095Z,1.40
2023-02-22T06:36:10.804Z,1.25
2023-02-22T06:37:13.809Z,1.17
2023-02-22T06:38:25.696Z,1.52
2023-02-22T06:39:29.137Z,1.10
2023-02-22T06:40:32.372Z,0.80
2023-02-22T06:41:38.481Z,2.67
2023-02-22T06:42:41.943Z,1.50
2023-02-22T06:43:47.799Z,0.98
2023-02-22T06:44:53.604Z,1.20
2023-02-22T06:45:56.717Z,1.50
2023-02-22T06:47:00.167Z,1.20
2023-02-22T06:48:03.533Z,1.55
2023-02-22T06:49:09.431Z,1.23
2023-02-22T06:50:35.531Z,1.20
2023-02-22T06:51:39.015Z,1.37
2023-02-22T06:52:45.312Z,1.67
2023-02-22T06:53:48.391Z,1.45
2023-02-22T06:54:52.184Z,1.35
2023-02-22T06:55:55.812Z,1.30
2023-02-22T06:56:58.967Z,1.27
2023-02-22T06:58:03.631Z,1.73
2023-02-22T06:59:07.072Z,1.23
2023-02-22T07:00:11.378Z,1.20
2023-02-22T07:01:14.753Z,1.77
2023-02-22T07:02:18.015Z,1.58
2023-02-22T07:03:21.484Z,1.55
2023-02-22T07:04:24.858Z,1.73
2023-02-22T07:05:28.627Z,1.60
2023-02-22T07:06:31.957Z,1.33
2023-02-22T07:07:35.004Z,1.60
2023-02-22T07:08:38.429Z,1.27
2023-02-22T07:09:43.809Z,1.45
2023-02-22T07:10:50.764Z,1.70
2023-02-22T07:11:53.861Z,1.25
2023-02-22T07:12:56.912Z,2.00
2023-02-22T07:13:59.999Z,1.42
2023-02-22T07:15:02.971Z,1.77
2023-02-22T07:16:06.284Z,1.83
2023-02-22T07:17:09.552Z,1.95
2023-02-22T07:18:14.266Z,1.62
2023-02-22T07:19:17.311Z,2.12
2023-02-22T07:20:21.725Z,1.73
2023-02-22T07:21:25.056Z,1.20
2023-02-22T07:22:28.389Z,1.35
2023-02-22T07:23:31.767Z,2.12
2023-02-22T07:24:35.392Z,2.05
2023-02-22T07:25:38.554Z,1.67
2023-02-22T07:26:42.931Z,1.60
2023-02-22T07:27:46.936Z,1.60
2023-02-22T07:28:50.282Z,1.48
2023-02-22T07:29:53.617Z,1.75
2023-02-22T07:30:56.755Z,1.83
2023-02-22T07:31:59.993Z,1.30
2023-02-22T07:33:08.869Z,1.35
2023-02-22T07:34:13.494Z,1.23
2023-02-22T07:35:18.707Z,1.62
2023-02-22T07:36:21.828Z,1.27
2023-02-22T07:37:24.872Z,1.75
2023-02-22T07:38:29.038Z,1.45
2023-02-22T07:39:32.373Z,1.60
2023-02-22T07:40:36.681Z,1.23
2023-02-22T07:41:39.848Z,1.35
2023-02-22T07:42:56.970Z,1.55
2023-02-22T07:43:59.947Z,1.35
2023-02-22T07:45:03.077Z,1.77
2023-02-22T07:46:06.225Z,1.70
2023-02-22T07:47:13.128Z,1.48
2023-02-22T07:48:17.809Z,1.55
2023-02-22T07:49:21.927Z,1.62
2023-02-22T07:50:26.680Z,1.45
2023-02-22T07:51:29.939Z,1.70
2023-02-22T07:52:33.220Z,2.05
2023-02-22T07:53:37.021Z,1.45
2023-02-22T07:54:40.181Z,2.15
2023-02-22T07:55:43.980Z,1.85
2023-02-22T07:56:50.349Z,1.33
2023-02-22T07:57:56.577Z,1.67
2023-02-22T07:59:01.218Z,1.42
2023-02-22T08:00:05.223Z,1.27
2023-02-22T08:01:08.964Z,2.08
2023-02-22T08:02:17.797Z,1.85
2023-02-22T08:03:24.761Z,1.75
2023-02-22T08:04:27.770Z,1.33
2023-02-22T08:05:34.784Z,1.37
2023-02-22T08:06:38.158Z,1.83
2023-02-22T08:07:41.508Z,1.50
2023-02-22T08:08:45.991Z,1.80
2023-02-22T08:09:49.135Z,1.73
2023-02-22T08:10:53.336Z,1.48
2023-02-22T08:11:56.544Z,1.77
2023-02-22T08:13:00.081Z,1.67
2023-02-22T08:14:03.161Z,1.62
2023-02-22T08:15:08.944Z,2.10
2023-02-22T08:16:12.261Z,1.58
2023-02-22T08:17:15.274Z,1.58
2023-02-22T08:18:20.117Z,1.60
2023-02-22T08:19:23.247Z,1.55
2023-02-22T08:20:26.443Z,1.33
2023-02-22T08:21:30.581Z,1.60
2023-02-22T08:22:33.793Z,1.37
2023-02-22T08:23:37.085Z,1.35
2023-02-22T08:24:40.880Z,1.40
2023-02-22T08:25:44.185Z,1.60
2023-02-22T08:26:48.072Z,1.73
2023-02-22T08:27:51.825Z,1.55
2023-02-22T08:28:55.073Z,2.10
2023-02-22T08:29:58.200Z,1.62
2023-02-22T08:31:01.355Z,1.50
2023-02-22T08:32:05.092Z,1.25
2023-02-22T08:33:08.448Z,1.52
2023-02-22T08:34:11.567Z,1.77
2023-02-22T08:35:16.407Z,1.50
2023-02-22T08:36:19.483Z,1.10
2023-02-22T08:37:23.042Z,1.23
2023-02-22T08:38:30.074Z,1.45
2023-02-22T08:39:33.302Z,1.75
2023-02-22T08:40:38.288Z,1.58
2023-02-22T08:41:41.428Z,1.40
2023-02-22T08:42:45.037Z,1.25
2023-02-22T08:43:48.292Z,1.77
2023-02-22T08:44:54.128Z,1.60
2023-02-22T08:45:57.933Z,1.15
2023-02-22T08:47:01.075Z,1.10
2023-02-22T08:48:04.542Z,1.25
2023-02-22T08:49:09.189Z,1.33
2023-02-22T08:50:19.331Z,1.20
2023-02-22T08:51:22.777Z,2.00
2023-02-22T08:52:26.182Z,1.23
2023-02-22T08:53:33.221Z,1.45
2023-02-22T08:54:36.417Z,1.40
2023-02-22T08:55:40.755Z,1.98
2023-02-22T08:56:44.322Z,1.20
2023-02-22T08:57:47.758Z,1.42
2023-02-22T08:58:50.915Z,1.83
2023-02-22T08:59:54.429Z,1.35
2023-02-22T09:00:58.205Z,1.30
2023-02-22T09:02:03.363Z,1.40
2023-02-22T09:03:15.206Z,1.08
2023-02-22T09:04:18.743Z,1.40
2023-02-22T09:05:24.362Z,1.12
2023-02-22T09:06:27.328Z,0.85
2023-02-22T09:07:30.319Z,1.10
2023-02-22T09:08:33.728Z,1.05
2023-02-22T09:09:37.214Z,1.42
2023-02-22T09:10:40.893Z,0.93
2023-02-22T09:11:44.306Z,1.20
2023-02-22T09:12:47.659Z,0.77
2023-02-22T09:13:50.863Z,1.00
2023-02-22T09:14:53.922Z,1.42
2023-02-22T09:15:57.068Z,1.00
2023-02-22T09:17:00.717Z,1.20
2023-02-22T09:18:06.396Z,0.93
2023-02-22T09:19:10.479Z,2.03
2023-02-22T09:20:15.091Z,0.93
2023-02-22T09:21:18.674Z,0.85
2023-02-22T09:22:22.127Z,0.90
2023-02-22T09:23:26.362Z,0.73
2023-02-22T09:24:29.642Z,0.77
2023-02-22T09:25:34.716Z,0.77
2023-02-22T09:26:43.016Z,0.90
2023-02-22T09:27:51.982Z,0.70
2023-02-22T09:28:55.140Z,1.20
2023-02-22T09:29:58.871Z,0.82
2023-02-22T09:31:02.036Z,0.77
2023-02-22T09:32:06.015Z,0.85
2023-02-22T09:33:18.926Z,0.80
2023-02-22T09:34:29.964Z,0.88
2023-02-22T09:35:36.589Z,0.65
2023-02-22T09:36:44.351Z,0.80
2023-02-22T09:37:47.481Z,1.20
2023-02-22T09:38:53.878Z,1.30
2023-02-22T09:39:57.106Z,1.15
2023-02-22T09:41:55.520Z,0.77
2023-02-22T09:43:32.976Z,1.12
2023-02-22T09:44:54.087Z,0.90
2023-02-22T09:46:13.875Z,1.12
2023-02-22T09:47:33.905Z,1.25
2023-02-22T09:48:51.375Z,0.73
2023-02-22T09:50:02.865Z,0.77
2023-02-22T09:51:18.205Z,1.10
2023-02-22T09:52:28.165Z,1.20
2023-02-22T09:53:37.382Z,1.30
2023-02-22T09:54:45.394Z,0.80
2023-02-22T09:55:53.225Z,0.62
2023-02-22T09:56:58.898Z,1.10
2023-02-22T09:58:13.840Z,0.70
2023-02-22T09:59:24.854Z,0.70
2023-02-22T10:00:41.078Z,1.30
2023-02-22T10:01:48.916Z,0.93
2023-02-22T10:03:10.576Z,0.75
2023-02-22T10:04:22.466Z,0.80
2023-02-22T10:05:34.080Z,0.90
2023-02-22T10:06:40.009Z,0.73
2023-02-22T10:07:54.599Z,0.55
2023-02-22T10:09:08.007Z,0.75
2023-02-22T10:10:19.995Z,0.47
2023-02-22T10:11:48.965Z,0.70
2023-02-22T10:13:06.459Z,0.80
2023-02-22T10:14:31.349Z,0.73
2023-02-22T10:16:06.653Z,0.60
2023-02-22T10:17:20.501Z,0.77
2023-02-22T10:18:48.657Z,1.60
2023-02-22T10:20:00.800Z,2.53
2023-02-22T10:21:31.196Z,2.67
2023-02-22T10:22:40.428Z,2.75
2023-02-22T10:24:04.876Z,2.85
2023-02-22T10:25:19.531Z,2.85
2023-02-22T10:26:37.015Z,2.30
2023-02-22T10:28:03.970Z,3.12
2023-02-22T10:29:17.864Z,2.28
2023-02-22T10:30:34.663Z,2.17
2023-02-22T10:31:47.422Z,2.70
2023-02-22T10:33:17.791Z,2.15
2023-02-22T10:34:31.401Z,2.72
2023-02-22T10:35:38.103Z,2.65
2023-02-22T10:36:44.197Z,2.30
2023-02-22T10:37:48.489Z,2.25
2023-02-22T10:38:57.942Z,2.40
2023-02-22T10:40:14.590Z,2.40
2023-02-22T10:41:37.428Z,2.92
2023-02-22T10:42:40.567Z,2.08
2023-02-22T10:43:44.835Z,2.35
2023-02-22T10:44:48.124Z,2.03
2023-02-22T10:45:56.316Z,2.50
2023-02-22T10:47:03.267Z,2.37
2023-02-22T10:48:15.612Z,3.22
2023-02-22T10:49:24.114Z,2.15
2023-02-22T10:50:29.934Z,2.45
2023-02-22T10:51:34.499Z,2.60
2023-02-22T10:52:37.840Z,2.78
2023-02-22T10:53:41.222Z,2.22
2023-02-22T10:54:48.518Z,2.90
2023-02-22T10:56:15.452Z,2.00
2023-02-22T10:57:32.468Z,1.70
2023-02-22T10:58:54.309Z,2.53
2023-02-22T10:59:58.110Z,2.00
2023-02-22T11:01:17.947Z,2.87
2023-02-22T11:02:27.951Z,2.00
2023-02-22T11:03:31.142Z,2.50
2023-02-22T11:04:52.247Z,2.90
2023-02-22T11:05:55.394Z,3.08
2023-02-22T11:07:01.491Z,2.53
2023-02-22T11:08:28.299Z,2.15
2023-02-22T11:09:31.676Z,2.55
2023-02-22T11:10:39.276Z,2.55
2023-02-22T11:11:46.224Z,2.70
2023-02-22T11:12:51.395Z,2.70
2023-02-22T11:13:55.845Z,2.83
2023-02-22T11:15:24.601Z,2.97
2023-02-22T11:16:41.234Z,2.25
2023-02-22T11:17:46.934Z,2.37
2023-02-22T11:18:50.426Z,2.22
2023-02-22T11:19:53.728Z,2.70
2023-02-22T11:21:02.390Z,2.60
2023-02-22T11:22:05.633Z,2.42
2023-02-22T11:23:09.087Z,2.83
2023-02-22T11:24:15.709Z,2.40
2023-02-22T11:25:23.224Z,2.10
2023-02-22T11:26:26.451Z,1.98
2023-02-22T11:27:44.091Z,2.78
2023-02-22T11:28:51.181Z,2.58
2023-02-22T11:29:59.643Z,2.22
2023-02-22T11:31:16.297Z,2.42
2023-02-22T11:32:22.676Z,2.85
2023-02-22T11:33:29.644Z,2.40
2023-02-22T11:34:37.259Z,2.83
2023-02-22T11:35:54.282Z,2.30
2023-02-22T11:37:15.845Z,2.22
2023-02-22T11:38:21.397Z,2.60
2023-02-22T11:39:32.665Z,1.67
2023-02-22T11:40:35.705Z,2.10
2023-02-22T11:41:38.721Z,2.58
2023-02-22T11:42:42.082Z,2.50
2023-02-22T11:43:48.401Z,2.22
2023-02-22T11:45:10.088Z,3.15
2023-02-22T11:46:26.609Z,2.55
2023-02-22T11:47:31.870Z,2.70
2023-02-22T11:48:39.774Z,2.53
2023-02-22T11:49:46.035Z,2.47
2023-02-22T11:51:14.473Z,2.50
2023-02-22T11:52:41.520Z,3.00
2023-02-22T11:53:57.697Z,2.58
2023-02-22T11:55:42.141Z,2.37
2023-02-22T11:56:50.614Z,2.05
2023-02-22T11:58:14.697Z,2.75
2023-02-22T11:59:42.189Z,2.53
2023-02-22T12:01:12.107Z,2.47
2023-02-22T12:02:15.355Z,2.35
2023-02-22T12:03:34.696Z,2.33
2023-02-22T12:05:12.330Z,3.28
2023-02-22T12:06:28.071Z,2.37
2023-02-22T12:07:50.923Z,2.37
2023-02-22T12:09:07.433Z,2.00
2023-02-22T12:10:40.479Z,4.47
2023-02-22T12:11:46.511Z,2.80
2023-02-22T12:13:17.356Z,2.35
2023-02-22T12:14:32.479Z,2.65
2023-02-22T12:15:56.697Z,1.75
2023-02-22T12:17:31.042Z,2.87
2023-02-22T12:18:50.828Z,2.47
2023-02-22T12:20:10.469Z,1.73
2023-02-22T12:21:20.730Z,2.12
2023-02-22T12:22:28.901Z,2.03
2023-02-22T12:23:45.102Z,2.60
2023-02-22T12:25:14.870Z,2.30
2023-02-22T12:26:38.133Z,1.87
2023-02-22T12:27:50.531Z,2.03
2023-02-22T12:28:53.733Z,2.20
2023-02-22T12:30:07.145Z,1.98
2023-02-22T12:32:03.359Z,1.98
2023-02-22T12:33:26.339Z,1.30
2023-02-22T12:34:36.735Z,2.12
2023-02-22T12:35:51.087Z,2.28
2023-02-22T12:36:59.888Z,2.08
2023-02-22T12:38:31.473Z,2.15
2023-02-22T12:39:58.437Z,1.87
2023-02-22T12:41:06.233Z,2.12
2023-02-22T12:42:17.064Z,1.83
2023-02-22T12:43:24.785Z,1.55
2023-02-22T12:44:38.967Z,1.42
2023-02-22T12:46:18.227Z,1.92
2023-02-22T12:47:28.109Z,1.48
2023-02-22T12:48:40.857Z,1.98
2023-02-22T12:50:00.540Z,3.05
2023-02-22T12:51:22.175Z,1.67
2023-02-22T12:52:46.905Z,1.52
2023-02-22T12:54:13.591Z,2.80
2023-02-22T12:55:29.031Z,2.20
2023-02-22T12:56:42.172Z,2.40
2023-02-22T12:57:48.016Z,2.22
2023-02-22T12:59:03.653Z,2.72
2023-02-22T13:00:28.896Z,2.10
2023-02-22T13:01:40.490Z,2.20
2023-02-22T13:02:54.613Z,1.85
2023-02-22T13:03:57.486Z,2.83
2023-02-22T13:05:02.201Z,2.45
2023-02-22T13:06:13.331Z,1.98
2023-02-22T13:07:37.142Z,2.25
2023-02-22T13:09:06.188Z,2.00
2023-02-22T13:10:26.604Z,2.20
2023-02-22T13:11:48.296Z,2.62
2023-02-22T13:12:57.662Z,2.12
2023-02-22T13:14:19.035Z,2.08
2023-02-22T13:15:28.024Z,2.70
2023-02-22T13:16:52.932Z,2.45
2023-02-22T13:18:41.179Z,2.15
2023-02-22T13:20:08.049Z,2.15
2023-02-22T13:21:51.583Z,2.15
2023-02-22T13:23:25.555Z,2.10
2023-02-22T13:25:02.283Z,2.08
2023-02-22T13:26:08.230Z,2.20
2023-02-22T13:27:24.194Z,2.90
2023-02-22T13:28:46.078Z,1.90
2023-02-22T13:29:55.516Z,1.60
2023-02-22T13:31:28.611Z,2.40
2023-02-22T13:33:03.951Z,1.70
2023-02-22T13:34:16.694Z,2.67
2023-02-22T13:35:52.909Z,2.12
2023-02-22T13:37:06.772Z,1.58
2023-02-22T13:38:12.476Z,1.95
2023-02-22T13:39:46.005Z,1.95
2023-02-22T13:41:17.153Z,1.75
2023-02-22T13:42:38.965Z,1.67
2023-02-22T13:43:59.579Z,1.50
2023-02-22T13:45:20.984Z,2.20
2023-02-22T13:46:47.332Z,2.10
2023-02-22T13:48:24.522Z,1.10
2023-02-22T13:49:39.100Z,1.37
2023-02-22T13:51:09.066Z,0.95
2023-02-22T13:52:23.935Z,0.85
2023-02-22T13:53:33.126Z,0.85
2023-02-22T13:54:51.625Z,1.08
2023-02-22T13:55:58.657Z,0.95
2023-02-22T13:57:05.977Z,1.05
2023-02-22T13:58:12.954Z,0.90
2023-02-22T13:59:36.345Z,1.10
2023-02-22T14:00:57.674Z,1.10
2023-02-22T14:02:04.718Z,1.17
2023-02-22T14:03:13.512Z,1.15
2023-02-22T14:04:28.683Z,0.70
2023-02-22T14:05:44.910Z,1.42
2023-02-22T14:06:48.124Z,1.12
2023-02-22T14:07:51.085Z,1.33
2023-02-22T14:08:54.671Z,1.12
2023-02-22T14:10:01.923Z,1.17
2023-02-22T14:11:14.391Z,1.10
2023-02-22T14:12:30.202Z,1.00
2023-02-22T14:13:56.088Z,1.00
2023-02-22T14:15:27.746Z,0.95
2023-02-22T14:16:34.106Z,1.08
2023-02-22T14:17:39.735Z,0.93
2023-02-22T14:18:46.177Z,0.80
2023-02-22T14:20:21.950Z,0.85
2023-02-22T14:21:24.978Z,0.85
2023-02-22T14:22:29.377Z,1.00
2023-02-22T14:23:41.594Z,0.70
2023-02-22T14:24:47.057Z,1.50
2023-02-22T14:25:51.032Z,1.40
2023-02-22T14:27:03.789Z,1.60
2023-02-22T14:28:30.460Z,1.12
2023-02-22T14:29:35.270Z,1.15
2023-02-22T14:30:40.342Z,1.25
2023-02-22T14:31:43.605Z,0.95
2023-02-22T14:32:49.171Z,1.10
2023-02-22T14:33:52.571Z,0.77
2023-02-22T14:34:58.399Z,1.23
2023-02-22T14:36:01.344Z,0.90
2023-02-22T14:37:13.204Z,1.23
2023-02-22T14:38:20.222Z,1.10
2023-02-22T14:39:26.397Z,0.95
2023-02-22T14:40:36.475Z,0.82
2023-02-22T14:42:05.838Z,0.80
2023-02-22T14:43:15.178Z,1.15
2023-02-22T14:44:24.379Z,1.00
2023-02-22T14:45:36.092Z,0.95
2023-02-22T14:46:42.972Z,0.73
2023-02-22T14:48:18.029Z,0.90
2023-02-22T14:49:25.601Z,0.68
2023-02-22T14:50:53.410Z,1.02
2023-02-22T14:52:04.108Z,0.80
2023-02-22T14:53:13.118Z,0.50
2023-02-22T14:54:25.753Z,0.70
2023-02-22T14:55:31.671Z,0.70
2023-02-22T14:57:29.196Z,0.80
2023-02-22T14:59:11.804Z,0.80
2023-02-22T15:00:23.035Z,0.80
2023-02-22T15:01:49.154Z,1.00
2023-02-22T15:03:00.668Z,0.90
2023-02-22T15:04:18.842Z,0.88
2023-02-22T15:05:21.711Z,0.82
2023-02-22T15:06:28.825Z,0.95
2023-02-22T15:07:32.486Z,0.93
2023-02-22T15:08:35.407Z,0.90
2023-02-22T15:09:38.295Z,1.05
2023-02-22T15:10:46.877Z,0.68
2023-02-22T15:11:55.284Z,1.08
2023-02-22T15:13:10.858Z,1.05
2023-02-22T15:14:26.210Z,0.82
2023-02-22T15:15:32.061Z,1.08
2023-02-22T15:16:35.352Z,1.30
2023-02-22T15:17:38.744Z,1.42
2023-02-22T15:18:46.854Z,1.12
2023-02-22T15:19:50.218Z,1.00
2023-02-22T15:20:58.312Z,0.52
2023-02-22T15:22:02.691Z,1.00
2023-02-22T15:23:05.649Z,0.77
2023-02-22T15:24:12.462Z,1.00
2023-02-22T15:25:15.922Z,1.48